Main page
METAR-TAF:

METAR-TAF

Airports :

Tri-State Steuben County Airport

Angola, Indiana, United States

latitude: 41-38-23N, longitude: 085-05-01W, elevation: 994 ft

Current weather observation

The report was made 14 minutes ago, at 19:55 UTC
Wind 6 mph from variable directions
Temperature 43°F
Humidity 70%
Pressure 30.23 in. Hg
Visibility: 10 miles
Overcast at a height of 2700 ft

METAR: KANQ 241955Z AUTO VRB05KT 10SM OVC027 06/01 A3023 RMK AO2

Time: 16:09 (20:09 UTC)


TAF: missing

Weather observations and forecasts of more than 4000 airports (METAR and TAF reports).

The available stations are represented by yellow and red dots on the map.

Hover mouse over dot to see the name of the station.

Then click to see weather observations and forecasts.

To change the map : click on the green buttons with a black cross to zoom in, on the green button with a dash to zoom out, or on the green arrows for adjacent maps.


METAR-TAF: